» Metar & Tafor

23 Maret 2020
METAR
Pukul : 10.00 UTC
Isi :

METAR WAGI 111000Z 00000KT 9999 SCT018 28/24 Q1009 NOSIG=


10 Juni 2019
TAFOR
Pukul : 06 - 18 UTC
Isi :

TAF WAGI 110500Z 1106/1118 03004KT 7000 BKN015 TEMPO 1106/1109 10006KT 3000 TSRA FEW013CB BKN013=


Hal: << First | < Prev | 1 | Next > | Last >>